Terminal Aerodrome Forecast
Issued by NWS Memphis, TN

Home | Current Version | Previous Version | Text Only | Print | Product List | Glossary On
Versions: 1 2 3 4 5 6 7 8 9 10 11 12 13 14 15 16 17 18 19 20 21 22 23 24 25
000
FTUS44 KMEG 280859 AAA
TAFMEM
TAF AMD
KMEM 280859Z 2809/0106 17012KT P6SM VCSH SCT008 OVC015
      WS020/21045KT
      TEMPO 2809/2812 4SM TSRA BR BKN008CB
     FM281200 18012G18KT 4SM TSRA SCT008 OVC015CB
     FM281700 19013G20KT P6SM VCSH BKN025 OVC035
     FM282000 20015G22KT P6SM BKN035
     FM010300 19018G26KT P6SM VCTS SCT030CB BKN040=

USA.gov is the U.S. government's official web portal to all federal, state and local government web resources and services.